Search for airport 
image banner adimage banner adimage banner ad
image banner ad

34PA - Waltz

Located in Gettysburg, United States

ICAO - 34PA, IATA -

Data provided by Airmate  

General information

Coordinates: N39°45'38" W77°11'35"
Elevation is 542 feet MSL.
Magnetic variation is -10° East
View others Airports in Pennsylvania

Operational data

Special qualification required
Current time UTC:
Current local time:
METAR: KDMW 182315Z AUTO 24003KT 10SM CLR 27/09 A3029 RMK AO2
View NOTAMs / SUP AIP / TFR affecting this airport [VIEW]
Communications frequencies: [VIEW]

Runways:

RWY identifierQFULength (ft)Width (ft)SurfaceLDA (ft)
171700100GRASS
351700100GRASS

Airport contact information

Address: Gettysburg United States

Satellite view of 34PA